Time;durP1;ratioP1;P1;durP2;ratioP2;P2;SDS_P1;SDS_P2;PMS_P1;PMS_P2;Temp;Humidity;BMP_temperature;BMP_pressure;BME280_temperature;BME280_humidity;BME280_pressure;Samples;Min_cycle;Max_cycle;Signal;HPM_P1;HPM_P2
2023/02/24 00:01:23;;;;;;;;;;;;;;;21.65;25.59;98316.22;5078844;28;951;-81
2023/02/24 00:03:52;;;;;;;;;;;;;;;22.12;24.86;98304.66;5079933;28;863;-81
2023/02/24 00:06:17;;;;;;;;;;;;;;;22.23;24.76;98310.88;5078664;28;1456;-81
2023/02/24 00:08:43;;;;;;;;;;;;;;;22.44;24.33;98308.78;5079644;28;899;-81
2023/02/24 00:11:11;;;;;;;;;;;;;;;22.03;24.75;98310.13;5079819;28;1910;-81
2023/02/24 00:13:37;;;;;;;;;;;;;;;22.07;24.85;98305.16;5079968;28;895;-81
2023/02/24 00:16:03;;;;;;;;;;;;;;;21.97;25.10;98292.06;5028326;28;901;-81
2023/02/24 00:18:31;;;;;;;;;;;;;;;21.79;25.30;98292.47;5061815;28;913;-81
2023/02/24 00:21:02;;;;;;;;;;;;;;;22.07;25.05;98293.81;5080095;28;810;-81
2023/02/24 00:23:28;;;;;;;;;;;;;;;22.33;24.63;98287.16;5078534;28;801;-81
2023/02/24 00:25:59;;;;;;;;;;;;;;;21.98;25.04;98291.63;5080137;28;859;-80
2023/02/24 00:28:27;;;;;;;;;;;;;;;21.93;25.14;98280.00;5079416;28;820;-80
2023/02/24 00:30:54;;;;;;;;;;;;;;;21.82;25.02;98281.06;5078907;28;1137;-81
2023/02/24 00:33:22;;;;;;;;;;;;;;;22.23;24.57;98279.72;5077809;28;1910;-81
2023/02/24 00:35:48;;;;;;;;;;;;;;;22.29;24.50;98280.78;5078354;28;884;-81
2023/02/24 00:38:15;;;;;;;;;;;;;;;22.26;24.42;98270.31;5078946;28;818;-81
2023/02/24 00:40:44;;;;;;;;;;;;;;;21.99;25.11;98267.72;5079878;28;811;-81
2023/02/24 00:43:10;;;;;;;;;;;;;;;21.99;25.02;98264.06;5056501;28;982;-81
2023/02/24 00:45:37;;;;;;;;;;;;;;;21.90;25.17;98269.53;5040155;28;954;-81
2023/02/24 00:48:03;;;;;;;;;;;;;;;22.08;24.75;98258.59;5040155;28;1131;-81
2023/02/24 00:50:30;;;;;;;;;;;;;;;22.32;24.41;98251.53;5057320;28;935;-81
2023/02/24 00:52:55;;;;;;;;;;;;;;;21.90;25.13;98242.00;5039734;28;1909;-81
2023/02/24 00:55:22;;;;;;;;;;;;;;;21.94;25.02;98248.41;5039980;28;935;-81
2023/02/24 00:57:49;;;;;;;;;;;;;;;21.98;24.82;98237.00;5039956;28;796;-81
2023/02/24 01:00:16;;;;;;;;;;;;;;;22.36;24.56;98240.09;5040204;28;1111;-81
2023/02/24 01:02:43;;;;;;;;;;;;;;;22.23;24.76;98240.03;5056743;28;1001;-81
2023/02/24 01:05:10;;;;;;;;;;;;;;;22.16;24.80;98226.03;5040300;28;859;-81
2023/02/24 01:07:36;;;;;;;;;;;;;;;22.06;24.85;98233.53;5056486;28;1122;-81
2023/02/24 01:10:07;;;;;;;;;;;;;;;22.03;24.67;98230.78;5023449;28;1151;-81
2023/02/24 01:12:48;;;;;;;;;;;;;;;22.04;24.90;98227.50;5040133;28;1910;-81
2023/02/24 01:15:15;;;;;;;;;;;;;;;22.31;24.71;98221.59;5075625;28;855;-81
2023/02/24 01:17:40;;;;;;;;;;;;;;;22.38;24.42;98220.59;5061206;28;1185;-81
2023/02/24 01:20:16;;;;;;;;;;;;;;;22.01;24.76;98213.41;5060765;28;1156;-81
2023/02/24 01:22:45;;;;;;;;;;;;;;;21.91;25.00;98214.47;5078283;28;902;-81
2023/02/24 01:25:11;;;;;;;;;;;;;;;21.89;25.00;98211.31;5078703;28;867;-81
2023/02/24 01:27:38;;;;;;;;;;;;;;;22.34;24.79;98208.56;5077378;28;885;-81
2023/02/24 01:30:08;;;;;;;;;;;;;;;22.19;24.62;98208.16;5077275;28;1353;-80
2023/02/24 01:32:33;;;;;;;;;;;;;;;22.32;24.50;98200.50;5077129;28;1917;-81
2023/02/24 01:34:59;;;;;;;;;;;;;;;21.97;25.09;98195.72;5060431;28;881;-80
2023/02/24 01:37:24;;;;;;;;;;;;;;;22.00;24.83;98194.84;5076956;28;1219;-81
2023/02/24 01:39:50;;;;;;;;;;;;;;;21.94;25.17;98199.44;5060708;28;1250;-81
2023/02/24 01:42:19;;;;;;;;;;;;;;;22.23;24.76;98191.84;5060635;28;1158;-81
2023/02/24 01:44:45;;;;;;;;;;;;;;;22.39;24.49;98190.22;5076938;28;832;-81
2023/02/24 01:47:11;;;;;;;;;;;;;;;21.87;25.12;98188.31;5060395;28;1153;-81
2023/02/24 01:49:40;;;;;;;;;;;;;;;21.81;25.11;98188.00;5043642;28;1254;-81
2023/02/24 01:52:33;;;;;;;;;;;;;;;21.98;25.04;98188.81;5078005;28;1980;-81
2023/02/24 01:55:09;;;;;;;;;;;;;;;22.34;24.72;98180.22;5055305;28;994;-81
2023/02/24 01:57:35;;;;;;;;;;;;;;;22.29;24.64;98175.88;5039083;28;1195;-81
2023/02/24 02:00:09;;;;;;;;;;;;;;;21.99;24.97;98181.91;5022342;28;1205;-81
2023/02/24 02:02:41;;;;;;;;;;;;;;;21.87;24.99;98179.81;5040602;28;916;-81
2023/02/24 02:05:08;;;;;;;;;;;;;;;21.85;24.96;98166.84;5038648;28;911;-81
2023/02/24 02:07:34;;;;;;;;;;;;;;;22.04;24.85;98170.84;5055380;28;1124;-81
2023/02/24 02:09:59;;;;;;;;;;;;;;;22.32;24.66;98166.47;5021861;28;1105;-81
2023/02/24 02:12:25;;;;;;;;;;;;;;;22.22;24.53;98170.38;4995831;28;1914;-81
2023/02/24 02:14:52;;;;;;;;;;;;;;;21.85;25.04;98169.69;5012376;28;993;-81
2023/02/24 02:17:40;;;;;;;;;;;;;;;21.93;24.97;98175.19;5012523;28;1006;-81
2023/02/24 02:20:24;;;;;;;;;;;;;;;22.00;24.81;98170.13;4956968;29;880;-81
2023/02/24 02:23:08;;;;;;;;;;;;;;;22.16;24.78;98175.00;4941145;29;1207;-81
2023/02/24 02:25:34;;;;;;;;;;;;;;;22.12;24.93;98162.97;4957107;29;1166;-81
2023/02/24 02:28:10;;;;;;;;;;;;;;;22.02;24.71;98164.81;4940862;29;1129;-81
2023/02/24 02:30:36;;;;;;;;;;;;;;;21.81;25.46;98154.84;4958049;28;1025;-81
2023/02/24 02:33:29;;;;;;;;;;;;;;;21.63;25.66;98160.13;4979809;28;1993;-81
2023/02/24 02:36:33;;;;;;;;;;;;;;;21.96;25.12;98160.91;4957178;29;927;-81
2023/02/24 02:39:10;;;;;;;;;;;;;;;22.18;24.88;98155.53;4937649;29;892;-81
2023/02/24 02:41:48;;;;;;;;;;;;;;;22.25;24.72;98155.34;4918300;29;914;-81
2023/02/24 02:44:16;;;;;;;;;;;;;;;22.05;24.95;98151.78;4918493;29;1297;-81
2023/02/24 02:46:43;;;;;;;;;;;;;;;21.56;25.43;98146.94;4906030;29;1217;-81
2023/02/24 02:49:08;;;;;;;;;;;;;;;21.70;25.19;98145.78;4922220;29;1007;-81
2023/02/24 02:51:39;;;;;;;;;;;;;;;22.17;24.78;98147.47;4937448;29;1956;-81
2023/02/24 02:54:09;;;;;;;;;;;;;;;22.19;24.84;98142.97;4921931;29;1075;-81
2023/02/24 02:56:37;;;;;;;;;;;;;;;22.30;24.38;98145.50;4906455;29;1153;-81
2023/02/24 02:59:04;;;;;;;;;;;;;;;21.97;25.02;98141.91;4937149;29;988;-81
2023/02/24 03:01:32;;;;;;;;;;;;;;;21.73;25.13;98142.09;4934335;29;1303;-81
2023/02/24 03:04:00;;;;;;;;;;;;;;;21.81;25.21;98140.69;4933937;29;979;-81
2023/02/24 03:06:29;;;;;;;;;;;;;;;22.10;24.80;98134.25;4934247;29;1325;-81
2023/02/24 03:09:10;;;;;;;;;;;;;;;22.02;25.21;98138.50;4937131;29;1093;-81
2023/02/24 03:11:40;;;;;;;;;;;;;;;21.76;25.05;98129.88;4945273;28;1975;-81
2023/02/24 03:14:05;;;;;;;;;;;;;;;21.91;25.05;98127.44;5037726;28;990;-81
2023/02/24 03:16:31;;;;;;;;;;;;;;;21.71;25.26;98127.56;5038231;28;1115;-81
2023/02/24 03:19:02;;;;;;;;;;;;;;;22.08;24.95;98116.91;5037687;28;740;-81
2023/02/24 03:21:50;;;;;;;;;;;;;;;22.17;24.79;98114.25;5039863;28;1201;-81
2023/02/24 03:24:16;;;;;;;;;;;;;;;22.02;24.89;98107.34;5058425;28;1199;-81
2023/02/24 03:26:49;;;;;;;;;;;;;;;21.93;24.86;98110.03;5042467;28;1157;-81
2023/02/24 03:29:17;;;;;;;;;;;;;;;21.94;25.12;98105.94;5042260;28;1262;-81
2023/02/24 03:31:47;;;;;;;;;;;;;;;22.30;24.51;98112.28;5066303;28;1981;-81
2023/02/24 03:34:42;;;;;;;;;;;;;;;22.18;24.78;98109.41;5081400;28;913;-81
2023/02/24 03:37:07;;;;;;;;;;;;;;;22.15;24.45;98108.25;5002199;28;1194;-81
2023/02/24 03:39:33;;;;;;;;;;;;;;;21.97;24.95;98105.88;5018324;28;1280;-81
2023/02/24 03:42:17;;;;;;;;;;;;;;;21.81;25.41;98109.50;5018283;28;1208;-81
2023/02/24 03:44:44;;;;;;;;;;;;;;;21.92;25.23;98103.56;5018832;28;1119;-81
2023/02/24 03:47:10;;;;;;;;;;;;;;;22.09;24.80;98107.97;5002347;28;1251;-81
2023/02/24 03:49:37;;;;;;;;;;;;;;;22.14;24.70;98106.66;5001996;28;1127;-81
2023/02/24 03:52:09;;;;;;;;;;;;;;;22.09;25.04;98101.50;5002111;28;1910;-81
2023/02/24 03:54:35;;;;;;;;;;;;;;;21.91;25.11;98101.16;5017991;28;1269;-81
2023/02/24 03:57:11;;;;;;;;;;;;;;;21.82;25.30;98108.28;5001623;28;1100;-81
2023/02/24 03:59:38;;;;;;;;;;;;;;;22.15;24.77;98102.56;5001568;28;1335;-81
2023/02/24 04:02:22;;;;;;;;;;;;;;;22.18;24.71;98104.53;5001853;28;1269;-81
2023/02/24 04:04:55;;;;;;;;;;;;;;;21.85;25.10;98098.06;5001151;28;1297;-81
2023/02/24 04:07:53;;;;;;;;;;;;;;;21.84;24.98;98085.94;4985413;28;1046;-81
2023/02/24 04:10:25;;;;;;;;;;;;;;;21.79;25.23;98099.84;4981343;28;1264;-80
2023/02/24 04:13:03;;;;;;;;;;;;;;;21.98;25.22;98095.31;4999044;28;1895;-81
2023/02/24 04:15:36;;;;;;;;;;;;;;;22.10;24.74;98091.75;5000881;28;1174;-81
2023/02/24 04:18:06;;;;;;;;;;;;;;;22.36;24.52;98093.47;4985886;28;1269;-81
2023/02/24 04:20:36;;;;;;;;;;;;;;;22.10;24.83;98094.59;4985591;28;1175;-82
2023/02/24 04:23:07;;;;;;;;;;;;;;;21.90;25.13;98088.25;5001029;28;1274;-81
2023/02/24 04:25:33;;;;;;;;;;;;;;;21.87;25.42;98089.16;5009801;28;1189;-81
2023/02/24 04:27:59;;;;;;;;;;;;;;;22.08;24.79;98082.91;5020341;28;775;-82
2023/02/24 04:30:26;;;;;;;;;;;;;;;22.33;24.76;98088.72;5004262;28;1087;-82
2023/02/24 04:32:51;;;;;;;;;;;;;;;21.76;25.30;98084.56;5003928;28;1973;-81
2023/02/24 04:35:18;;;;;;;;;;;;;;;21.73;25.31;98090.31;5004642;28;1096;-81
2023/02/24 04:37:49;;;;;;;;;;;;;;;21.54;25.86;98089.16;5020570;28;1187;-81
2023/02/24 04:40:16;;;;;;;;;;;;;;;22.16;25.21;98084.31;5000921;28;1539;-81
2023/02/24 04:42:45;;;;;;;;;;;;;;;22.06;25.16;98074.03;4995774;28;1242;-81
2023/02/24 04:45:11;;;;;;;;;;;;;;;22.38;24.64;98083.72;5060769;28;1018;-81
2023/02/24 04:47:37;;;;;;;;;;;;;;;21.83;25.14;98084.38;5060394;28;918;-81
2023/02/24 04:50:05;;;;;;;;;;;;;;;21.86;25.06;98082.66;5033561;28;1205;-81
2023/02/24 04:52:31;;;;;;;;;;;;;;;21.40;25.91;98072.50;5001157;28;1969;-81
2023/02/24 04:54:57;;;;;;;;;;;;;;;21.82;25.35;98070.66;5016780;28;872;-81
2023/02/24 04:57:23;;;;;;;;;;;;;;;22.00;25.24;98070.16;5017056;28;907;-81
2023/02/24 04:59:52;;;;;;;;;;;;;;;22.09;24.74;98067.50;5016883;28;995;-81
2023/02/24 05:02:19;;;;;;;;;;;;;;;21.94;25.28;98067.09;5000878;28;1436;-81
2023/02/24 05:04:48;;;;;;;;;;;;;;;21.71;25.31;98065.28;5000465;28;911;-81
2023/02/24 05:07:15;;;;;;;;;;;;;;;21.64;25.55;98071.09;5000519;28;1139;-81
2023/02/24 05:09:41;;;;;;;;;;;;;;;22.18;24.81;98064.84;5000732;28;909;-81
2023/02/24 05:12:08;;;;;;;;;;;;;;;22.24;24.97;98067.94;5033867;28;1983;-81
2023/02/24 05:14:33;;;;;;;;;;;;;;;22.24;24.68;98067.94;5052952;28;967;-81
2023/02/24 05:16:59;;;;;;;;;;;;;;;21.88;25.00;98062.41;5035865;28;743;-81
2023/02/24 05:22:10;;;;;;;;;;;;;;;21.80;25.24;98073.91;5093649;28;907;-82
2023/02/24 05:24:35;;;;;;;;;;;;;;;22.06;24.86;98065.53;5096370;28;1191;-82
2023/02/24 05:27:02;;;;;;;;;;;;;;;22.24;24.80;98067.94;5079443;28;898;-82
2023/02/24 05:29:29;;;;;;;;;;;;;;;22.22;24.64;98065.53;5076656;28;958;-82
2023/02/24 05:31:58;;;;;;;;;;;;;;;21.92;25.00;98065.94;5076509;28;1957;-82
2023/02/24 05:34:29;;;;;;;;;;;;;;;21.78;25.07;98067.13;5077990;28;719;-82
2023/02/24 05:36:55;;;;;;;;;;;;;;;21.83;25.19;98067.38;5077834;28;855;-80
2023/02/24 05:39:20;;;;;;;;;;;;;;;22.21;24.98;98075.28;5077101;28;1151;-80
2023/02/24 05:41:47;;;;;;;;;;;;;;;22.27;24.69;98072.69;5059335;28;874;-80
2023/02/24 05:44:14;;;;;;;;;;;;;;;22.07;24.64;98069.97;5077360;28;917;-80
2023/02/24 05:46:40;;;;;;;;;;;;;;;21.94;25.27;98071.94;5060158;28;799;-79
2023/02/24 05:49:28;;;;;;;;;;;;;;;21.85;25.00;98070.53;5077746;28;764;-80
2023/02/24 05:51:54;;;;;;;;;;;;;;;22.06;25.02;98079.72;5078300;28;1910;-79
2023/02/24 05:54:21;;;;;;;;;;;;;;;22.29;24.47;98082.34;5077854;28;937;-80
2023/02/24 05:56:47;;;;;;;;;;;;;;;21.88;25.32;98070.91;5078169;28;866;-80
2023/02/24 05:59:16;;;;;;;;;;;;;;;21.89;25.37;98075.31;5078041;28;918;-80
2023/02/24 06:01:45;;;;;;;;;;;;;;;21.77;25.45;98080.47;5076692;28;821;-80
2023/02/24 06:04:19;;;;;;;;;;;;;;;21.78;25.58;98076.41;5076858;28;796;-80
2023/02/24 06:06:46;;;;;;;;;;;;;;;22.36;24.71;98081.34;5076343;28;1278;-80
2023/02/24 06:09:12;;;;;;;;;;;;;;;22.24;24.76;98082.91;5059289;28;771;-80
2023/02/24 06:11:39;;;;;;;;;;;;;;;21.81;25.41;98081.19;5076802;28;1981;-80
2023/02/24 06:14:07;;;;;;;;;;;;;;;21.76;25.24;98083.75;5076641;28;739;-80
2023/02/24 06:16:33;;;;;;;;;;;;;;;21.88;25.37;98085.06;5076830;28;770;-80
2023/02/24 06:18:59;;;;;;;;;;;;;;;21.97;25.25;98083.19;5076289;28;729;-80
2023/02/24 06:21:28;;;;;;;;;;;;;;;22.33;24.77;98088.72;5077825;28;969;-80
2023/02/24 06:23:55;;;;;;;;;;;;;;;22.34;24.76;98090.31;5076526;28;759;-79
2023/02/24 06:26:20;;;;;;;;;;;;;;;21.80;25.37;98079.56;5077714;28;858;-80
2023/02/24 06:28:46;;;;;;;;;;;;;;;21.74;25.24;98084.19;5077345;28;881;-80
2023/02/24 06:31:12;;;;;;;;;;;;;;;21.53;25.47;98082.69;5076435;28;779;-80
2023/02/24 06:33:39;;;;;;;;;;;;;;;22.20;24.88;98079.34;5076613;28;1906;-80
2023/02/24 06:36:04;;;;;;;;;;;;;;;22.21;24.84;98077.31;5077714;28;783;-80
2023/02/24 06:38:31;;;;;;;;;;;;;;;22.24;24.77;98074.38;5075831;28;846;-80
2023/02/24 06:41:02;;;;;;;;;;;;;;;21.96;24.97;98077.97;5076718;28;822;-80
2023/02/24 06:43:31;;;;;;;;;;;;;;;21.93;25.10;98076.03;5075866;28;802;-80
2023/02/24 06:45:57;;;;;;;;;;;;;;;21.83;25.47;98073.03;5077297;28;801;-80
2023/02/24 06:48:22;;;;;;;;;;;;;;;22.00;25.27;98075.84;5076762;28;850;-80
2023/02/24 06:50:49;;;;;;;;;;;;;;;22.23;24.68;98077.69;5077037;28;842;-79
2023/02/24 06:53:15;;;;;;;;;;;;;;;22.28;24.85;98077.13;5058472;28;1981;-79
2023/02/24 06:55:42;;;;;;;;;;;;;;;22.09;24.68;98070.31;5077052;28;1012;-79
2023/02/24 06:58:15;;;;;;;;;;;;;;;22.00;24.96;98075.84;5075858;28;895;-79
2023/02/24 07:00:41;;;;;;;;;;;;;;;22.05;24.83;98061.13;5076559;28;955;-80
2023/02/24 07:03:14;;;;;;;;;;;;;;;22.11;24.86;98059.34;5076183;28;764;-79
2023/02/24 07:05:48;;;;;;;;;;;;;;;22.25;24.55;98058.97;5075969;28;834;-79
2023/02/24 07:08:16;;;;;;;;;;;;;;;22.15;25.10;98065.72;5075152;28;1123;-80
2023/02/24 07:10:41;;;;;;;;;;;;;;;22.03;24.87;98063.63;5076173;28;836;-79
2023/02/24 07:13:08;;;;;;;;;;;;;;;21.95;25.05;98065.03;5076507;28;1901;-80
2023/02/24 07:15:35;;;;;;;;;;;;;;;21.76;25.26;98059.06;5077055;28;840;-80
2023/02/24 07:18:01;;;;;;;;;;;;;;;22.24;25.01;98063.06;5076150;28;853;-80
2023/02/24 07:20:28;;;;;;;;;;;;;;;22.26;24.62;98054.88;5077472;28;860;-79
2023/02/24 07:22:54;;;;;;;;;;;;;;;21.88;25.08;98051.88;5077000;28;730;-80
2023/02/24 07:25:32;;;;;;;;;;;;;;;21.81;25.03;98052.03;5076892;28;842;-80
2023/02/24 07:28:00;;;;;;;;;;;;;;;21.91;25.35;98050.16;5075783;28;896;-80
2023/02/24 07:30:29;;;;;;;;;;;;;;;22.11;24.79;98053.69;5076670;28;893;-80
2023/02/24 07:32:55;;;;;;;;;;;;;;;22.18;24.77;98055.56;5076496;28;1902;-80
2023/02/24 07:35:20;;;;;;;;;;;;;;;22.48;24.33;98046.53;5076981;28;753;-80
2023/02/24 07:37:49;;;;;;;;;;;;;;;21.96;24.85;98044.75;5075307;28;792;-80
2023/02/24 07:40:20;;;;;;;;;;;;;;;21.83;25.33;98039.03;5075552;28;879;-79
2023/02/24 07:42:47;;;;;;;;;;;;;;;21.79;25.20;98044.00;5074356;28;974;-80
2023/02/24 07:45:12;;;;;;;;;;;;;;;21.89;25.13;98035.66;5057144;28;918;-79
2023/02/24 07:47:39;;;;;;;;;;;;;;;22.15;24.76;98043.06;5057615;28;955;-80
2023/02/24 07:50:12;;;;;;;;;;;;;;;22.05;25.05;98021.44;5057530;28;818;-80
2023/02/24 07:52:38;;;;;;;;;;;;;;;21.88;25.33;98017.09;5057881;28;1967;-80
2023/02/24 07:55:04;;;;;;;;;;;;;;;21.98;25.12;98028.13;5074710;28;893;-80
2023/02/24 07:57:32;;;;;;;;;;;;;;;21.89;25.17;98024.34;5057800;28;923;-80
2023/02/24 07:59:58;;;;;;;;;;;;;;;22.29;24.88;98019.19;5057645;28;959;-80
2023/02/24 08:02:24;;;;;;;;;;;;;;;22.43;24.68;98030.09;5074410;28;1014;-79
2023/02/24 08:04:50;;;;;;;;;;;;;;;22.20;24.63;98021.88;5073944;28;872;-80
2023/02/24 08:07:22;;;;;;;;;;;;;;;21.72;25.44;98018.72;5074554;28;1048;-80
2023/02/24 08:10:09;;;;;;;;;;;;;;;21.71;25.30;98017.13;5077461;28;786;-80
2023/02/24 08:12:34;;;;;;;;;;;;;;;21.98;25.08;98013.16;5064310;28;1906;-80
2023/02/24 08:14:59;;;;;;;;;;;;;;;22.15;24.84;98011.09;5062503;28;1267;-79
2023/02/24 08:17:25;;;;;;;;;;;;;;;22.25;24.94;98013.63;5080321;28;914;-80
2023/02/24 08:20:20;;;;;;;;;;;;;;;22.20;24.96;98010.53;5078393;28;868;-79
2023/02/24 08:22:36;;;;;;;;;;;;;;;21.92;25.33;98000.78;5078353;28;850;-81
2023/02/24 08:25:05;;;;;;;;;;;;;;;21.84;25.49;98000.97;5078411;28;866;-81
2023/02/24 08:27:31;;;;;;;;;;;;;;;22.36;24.52;98002.75;5079610;28;862;-81
2023/02/24 08:29:56;;;;;;;;;;;;;;;22.22;24.76;97997.50;5078509;28;825;-80
2023/02/24 08:32:43;;;;;;;;;;;;;;;22.00;24.94;97994.47;5079738;28;1980;-81
2023/02/24 08:35:15;;;;;;;;;;;;;;;22.03;25.31;97989.94;5079254;28;925;-81
2023/02/24 08:37:45;;;;;;;;;;;;;;;21.64;25.59;97994.66;5079823;28;828;-80
2023/02/24 08:43:15;;;;;;;;;;;;;;;22.14;24.92;97996.13;5079303;28;826;-80
2023/02/24 08:45:44;;;;;;;;;;;;;;;21.87;25.14;97998.50;5079227;28;789;-80
2023/02/24 08:48:25;;;;;;;;;;;;;;;21.87;25.49;97993.63;5077697;28;877;-81
2023/02/24 08:50:58;;;;;;;;;;;;;;;21.81;25.38;97989.72;5062468;28;1228;-81
2023/02/24 08:53:28;;;;;;;;;;;;;;;21.98;25.20;97977.13;5059975;28;1905;-81
2023/02/24 08:55:54;;;;;;;;;;;;;;;22.24;24.80;97995.03;5060550;28;1340;-80
2023/02/24 08:58:25;;;;;;;;;;;;;;;22.30;24.70;97993.22;5076389;28;943;-80
2023/02/24 09:00:55;;;;;;;;;;;;;;;21.86;25.53;97986.34;5061111;28;943;-80
2023/02/24 09:03:28;;;;;;;;;;;;;;;21.91;25.19;97987.84;5076716;28;1261;-80
2023/02/24 09:05:59;;;;;;;;;;;;;;;21.66;25.41;97992.19;5061122;28;968;-80
2023/02/24 09:08:31;;;;;;;;;;;;;;;22.11;25.00;97985.69;5075913;28;812;-80
2023/02/24 09:11:00;;;;;;;;;;;;;;;22.25;24.95;97993.78;5076826;28;879;-80
2023/02/24 09:13:31;;;;;;;;;;;;;;;21.96;25.11;97978.81;5059680;28;1910;-80
2023/02/24 09:16:01;;;;;;;;;;;;;;;21.93;25.47;97974.06;5053514;28;1300;-81
2023/02/24 09:18:29;;;;;;;;;;;;;;;21.70;25.73;97978.69;5044886;28;1284;-81
2023/02/24 09:20:55;;;;;;;;;;;;;;;21.83;25.66;97970.28;5057342;28;929;-81
2023/02/24 09:23:28;;;;;;;;;;;;;;;22.17;24.91;97966.88;5058775;28;802;-81
2023/02/24 09:25:54;;;;;;;;;;;;;;;22.37;24.58;97975.19;5088900;28;883;-81
2023/02/24 09:28:23;;;;;;;;;;;;;;;22.03;25.03;97972.94;5091067;28;999;-80
2023/02/24 09:30:54;;;;;;;;;;;;;;;21.89;25.51;97973.34;5090282;28;855;-80
2023/02/24 09:33:20;;;;;;;;;;;;;;;21.84;25.43;97966.97;5058264;28;1969;-80
2023/02/24 09:35:59;;;;;;;;;;;;;;;21.91;25.43;97960.31;5058805;28;895;-80
2023/02/24 09:39:08;;;;;;;;;;;;;;;21.95;25.46;97961.00;5088962;28;743;-81
2023/02/24 09:44:23;;;;;;;;;;;;;;;21.80;25.73;97960.63;5076225;28;899;-81
2023/02/24 09:46:54;;;;;;;;;;;;;;;21.87;25.22;97956.03;5075942;28;897;-80
2023/02/24 09:49:38;;;;;;;;;;;;;;;21.63;25.67;97955.47;5076295;28;1101;-81
2023/02/24 09:52:15;;;;;;;;;;;;;;;22.09;25.05;97942.81;5060648;28;1983;-80
2023/02/24 09:54:49;;;;;;;;;;;;;;;22.16;24.95;97948.28;5059905;28;939;-80
2023/02/24 09:57:15;;;;;;;;;;;;;;;22.02;25.14;97946.66;5060637;28;1130;-80
2023/02/24 10:00:23;;;;;;;;;;;;;;;21.83;25.38;97937.06;5058677;28;963;-81
2023/02/24 10:02:58;;;;;;;;;;;;;;;21.91;25.38;97931.19;5075491;28;882;-80
2023/02/24 10:05:26;;;;;;;;;;;;;;;21.77;25.75;97929.59;5059823;28;923;-81
2023/02/24 10:07:52;;;;;;;;;;;;;;;22.16;25.15;97927.66;5060030;28;1143;-81
2023/02/24 10:10:19;;;;;;;;;;;;;;;22.23;25.22;97919.75;5035523;28;966;-80
2023/02/24 10:12:49;;;;;;;;;;;;;;;21.96;25.13;97916.47;5035708;28;1914;-81
2023/02/24 10:15:19;;;;;;;;;;;;;;;21.95;25.39;97904.34;5036012;28;979;-80
2023/02/24 10:17:54;;;;;;;;;;;;;;;21.69;25.75;97895.00;5035491;28;788;-80
2023/02/24 10:20:38;;;;;;;;;;;;;;;22.02;25.28;97901.31;5021537;28;1239;-80
2023/02/24 10:23:31;;;;;;;;;;;;;;;22.23;25.16;97897.06;4995909;28;817;-81
2023/02/24 10:26:29;;;;;;;;;;;;;;;22.20;24.74;97880.97;4996312;28;894;-81
2023/02/24 10:28:56;;;;;;;;;;;;;;;21.91;25.20;97878.16;4995885;28;1036;-81
2023/02/24 10:31:34;;;;;;;;;;;;;;;21.85;25.33;97880.75;4995603;28;1005;-81
2023/02/24 10:34:00;;;;;;;;;;;;;;;21.96;25.60;97871.16;4995807;28;1230;-80
2023/02/24 10:36:35;;;;;;;;;;;;;;;22.28;24.84;97876.69;5012508;28;874;-81
2023/02/24 10:39:14;;;;;;;;;;;;;;;22.36;25.06;97863.84;4995402;28;947;-80
2023/02/24 10:41:46;;;;;;;;;;;;;;;21.99;25.40;97858.94;5012299;28;934;-80
2023/02/24 10:44:18;;;;;;;;;;;;;;;21.72;25.60;97850.84;5011869;28;932;-80
2023/02/24 10:46:44;;;;;;;;;;;;;;;21.76;25.62;97852.31;4999687;28;814;-80
2023/02/24 10:49:14;;;;;;;;;;;;;;;22.01;25.60;97842.25;5034696;28;1312;-80
2023/02/24 10:51:44;;;;;;;;;;;;;;;22.24;25.23;97835.53;5018365;28;1914;-80
2023/02/24 10:54:21;;;;;;;;;;;;;;;22.31;24.87;97821.09;5050703;28;1064;-80
2023/02/24 10:56:54;;;;;;;;;;;;;;;21.85;25.53;97826.16;5051668;28;1138;-80
2023/02/24 10:59:40;;;;;;;;;;;;;;;21.96;25.44;97815.28;5034520;28;889;-80
2023/02/24 11:02:28;;;;;;;;;;;;;;;22.13;25.11;97812.41;5021030;28;1043;-80
2023/02/24 11:07:52;;;;;;;;;;;;;;;21.87;25.51;97812.34;5044045;28;1214;-80
2023/02/24 11:10:25;;;;;;;;;;;;;;;21.97;25.32;97804.78;5074696;28;973;-81
2023/02/24 11:18:27;;;;;;;;;;;;;;;22.24;25.19;97790.97;5055199;28;926;-80
2023/02/24 11:20:53;;;;;;;;;;;;;;;22.24;25.15;97785.28;5038656;28;983;-80
2023/02/24 11:23:21;;;;;;;;;;;;;;;21.90;25.10;97799.31;5037697;28;992;-80
2023/02/24 11:25:47;;;;;;;;;;;;;;;21.83;25.62;97789.00;5038502;28;885;-80
2023/02/24 11:28:22;;;;;;;;;;;;;;;21.94;25.52;97778.13;5037712;28;914;-81
2023/02/24 11:31:05;;;;;;;;;;;;;;;22.31;25.05;97770.88;5023545;28;1131;-80
2023/02/24 11:33:31;;;;;;;;;;;;;;;22.21;25.33;97768.41;5033975;28;1915;-81
2023/02/24 11:36:29;;;;;;;;;;;;;;;22.15;25.09;97765.34;5034741;28;865;-81
2023/02/24 11:39:21;;;;;;;;;;;;;;;21.93;25.54;97753.88;5037516;28;891;-81
2023/02/24 11:41:51;;;;;;;;;;;;;;;21.99;25.55;97749.22;5021720;28;953;-81
2023/02/24 11:44:22;;;;;;;;;;;;;;;22.26;25.14;97754.44;5024637;28;904;-81
2023/02/24 11:46:50;;;;;;;;;;;;;;;22.32;25.03;97740.50;5041536;28;798;-81
2023/02/24 11:49:24;;;;;;;;;;;;;;;22.19;25.03;97749.03;5001589;28;1413;-81
2023/02/24 11:51:50;;;;;;;;;;;;;;;22.08;25.22;97742.88;5035245;28;1906;-81
2023/02/24 11:54:18;;;;;;;;;;;;;;;21.77;25.52;97740.63;5002109;28;997;-81
2023/02/24 11:56:58;;;;;;;;;;;;;;;22.22;25.03;97736.75;5018746;28;1269;-81
2023/02/24 11:59:35;;;;;;;;;;;;;;;22.04;25.35;97725.22;5018135;28;824;-81
2023/02/24 12:02:18;;;;;;;;;;;;;;;22.18;25.22;97730.44;5002319;28;964;-81
2023/02/24 12:04:58;;;;;;;;;;;;;;;21.92;25.45;97726.03;5001763;28;859;-80
2023/02/24 12:07:26;;;;;;;;;;;;;;;21.84;25.46;97717.72;5001853;28;1053;-81
2023/02/24 12:10:11;;;;;;;;;;;;;;;22.06;25.61;97708.53;5001940;28;831;-81
2023/02/24 12:12:55;;;;;;;;;;;;;;;22.15;25.13;97713.53;5017910;28;1905;-81
2023/02/24 12:15:21;;;;;;;;;;;;;;;22.14;25.18;97700.63;5052061;28;1034;-81
2023/02/24 12:17:56;;;;;;;;;;;;;;;21.88;25.33;97706.28;5057550;28;817;-81
2023/02/24 12:20:22;;;;;;;;;;;;;;;21.88;25.54;97694.19;5057919;28;780;-81
2023/02/24 12:23:01;;;;;;;;;;;;;;;21.77;25.41;97698.16;5057566;28;872;-81
2023/02/24 12:25:28;;;;;;;;;;;;;;;22.18;25.07;97702.09;5057958;28;815;-81
2023/02/24 12:28:09;;;;;;;;;;;;;;;22.34;25.13;97698.31;5058230;28;910;-81
2023/02/24 12:30:37;;;;;;;;;;;;;;;21.83;25.46;97690.66;5059917;28;869;-81
2023/02/24 12:33:26;;;;;;;;;;;;;;;21.91;25.36;97691.22;5091926;28;1957;-81
2023/02/24 12:36:04;;;;;;;;;;;;;;;21.92;25.39;97694.84;5092278;28;899;-81
2023/02/24 12:38:44;;;;;;;;;;;;;;;22.20;25.29;97691.09;5074619;28;897;-81
2023/02/24 12:41:28;;;;;;;;;;;;;;;22.41;24.77;97691.59;5091796;28;779;-81
2023/02/24 12:43:56;;;;;;;;;;;;;;;21.92;25.50;97677.88;5059052;28;922;-81
2023/02/24 12:46:27;;;;;;;;;;;;;;;21.85;25.78;97685.31;5091752;28;855;-81
2023/02/24 12:48:58;;;;;;;;;;;;;;;21.96;25.59;97684.19;5091779;28;942;-81
2023/02/24 12:51:24;;;;;;;;;;;;;;;22.03;25.46;97678.28;5059317;28;830;-81
2023/02/24 12:53:57;;;;;;;;;;;;;;;22.25;25.00;97673.50;5058845;28;1977;-81
2023/02/24 12:56:27;;;;;;;;;;;;;;;22.15;25.11;97669.00;5059579;28;928;-80
2023/02/24 12:58:57;;;;;;;;;;;;;;;22.03;25.19;97658.47;5090198;28;955;-81
2023/02/24 13:01:35;;;;;;;;;;;;;;;21.91;25.43;97659.25;5091440;28;951;-81
2023/02/24 13:04:14;;;;;;;;;;;;;;;21.63;26.00;97661.78;5091351;28;844;-80
2023/02/24 13:06:42;;;;;;;;;;;;;;;22.14;25.29;97675.91;5091411;28;1197;-81
2023/02/24 13:09:34;;;;;;;;;;;;;;;22.29;24.95;97662.84;5059137;28;922;-81
2023/02/24 13:12:02;;;;;;;;;;;;;;;22.12;25.11;97675.56;5076617;28;1977;-81
2023/02/24 13:14:29;;;;;;;;;;;;;;;22.07;25.21;97668.44;5076500;28;960;-81
2023/02/24 13:17:04;;;;;;;;;;;;;;;21.89;25.72;97658.94;5056359;28;1022;-81
2023/02/24 13:19:29;;;;;;;;;;;;;;;21.87;25.63;97656.56;5039853;28;810;-81
2023/02/24 13:21:56;;;;;;;;;;;;;;;22.22;25.08;97648.13;5073381;28;1641;-81
2023/02/24 13:24:21;;;;;;;;;;;;;;;22.30;24.89;97640.97;5056409;28;917;-81
2023/02/24 13:26:47;;;;;;;;;;;;;;;21.87;25.79;97652.94;5039792;28;897;-81
2023/02/24 13:29:12;;;;;;;;;;;;;;;21.77;25.62;97660.53;5056193;28;941;-80
2023/02/24 13:31:39;;;;;;;;;;;;;;;21.73;25.78;97663.47;5056306;28;1067;-81
2023/02/24 13:34:11;;;;;;;;;;;;;;;22.07;25.42;97656.28;5056290;28;960;-81
2023/02/24 13:36:44;;;;;;;;;;;;;;;22.28;25.06;97643.47;5039795;28;1182;-81
2023/02/24 13:39:40;;;;;;;;;;;;;;;22.36;24.83;97639.91;5059365;28;1626;-81